Time;durP1;ratioP1;P1;durP2;ratioP2;P2;SDS_P1;SDS_P2;PMS_P1;PMS_P2;Temp;Humidity;BMP_temperature;BMP_pressure;BME280_temperature;BME280_humidity;BME280_pressure;Samples;Min_cycle;Max_cycle;Signal;HPM_P1;HPM_P2
2023/04/18 00:01:01;;;;;;;5.10;2.03;;;;;;;7.73;46.88;103355.72;5047802;28;20124;-67
2023/04/18 00:03:28;;;;;;;5.55;2.00;;;;;;;7.74;47.50;103357.44;5060084;28;20037;-67
2023/04/18 00:05:54;;;;;;;4.85;2.38;;;;;;;7.77;47.96;103358.03;5066660;28;20103;-67
2023/04/18 00:08:19;;;;;;;4.05;2.13;;;;;;;7.71;47.83;103360.34;5068196;28;20048;-67
2023/04/18 00:10:45;;;;;;;4.70;2.00;;;;;;;7.70;47.90;103367.53;5063705;28;20040;-67
2023/04/18 00:13:10;;;;;;;5.00;2.15;;;;;;;7.62;48.33;103363.75;5067069;28;20036;-67
2023/04/18 00:15:36;;;;;;;3.97;2.13;;;;;;;7.33;48.98;103341.84;5057665;28;20040;-67
2023/04/18 00:18:04;;;;;;;4.18;2.10;;;;;;;7.40;48.94;103360.00;5069303;28;20164;-67
2023/04/18 00:20:30;;;;;;;5.63;2.17;;;;;;;7.43;49.01;103367.81;5070762;28;20045;-67
2023/04/18 00:22:56;;;;;;;3.40;2.08;;;;;;;7.41;48.69;103360.84;5070944;28;20021;-68
2023/04/18 00:25:22;;;;;;;3.97;2.45;;;;;;;7.39;48.97;103355.63;5070376;28;20084;-67
2023/04/18 00:27:48;;;;;;;6.03;2.40;;;;;;;7.41;49.17;103355.50;5068797;28;20039;-67
2023/04/18 00:30:14;;;;;;;6.60;2.15;;;;;;;7.36;49.64;103363.88;5069412;28;20029;-67
2023/04/18 00:32:39;;;;;;;6.88;2.25;;;;;;;7.15;49.60;103357.44;5069046;28;20048;-67
2023/04/18 00:35:05;;;;;;;3.08;1.95;;;;;;;7.14;49.80;103378.00;5069890;28;20037;-67
2023/04/18 00:37:31;;;;;;;3.35;1.92;;;;;;;7.09;50.13;103379.34;5068861;28;20057;-67
2023/04/18 00:39:56;;;;;;;6.20;2.22;;;;;;;7.06;50.15;103383.09;5070005;28;20060;-67
2023/04/18 00:42:24;;;;;;;4.78;2.15;;;;;;;6.89;50.66;103354.88;5070324;28;20029;-67
2023/04/18 00:44:49;;;;;;;4.38;1.95;;;;;;;7.04;50.38;103387.69;5052852;28;20028;-67
2023/04/18 00:47:18;;;;;;;7.07;2.33;;;;;;;7.12;50.78;103397.81;5071436;28;20037;-67
2023/04/18 00:49:44;;;;;;;7.28;2.22;;;;;;;7.18;50.44;103397.38;5069773;28;20037;-67
2023/04/18 00:52:11;;;;;;;4.30;2.10;;;;;;;7.14;50.36;103393.22;5070061;28;20387;-67
2023/04/18 00:54:37;;;;;;;7.07;2.10;;;;;;;7.16;50.02;103392.16;5070302;28;20036;-67
2023/04/18 00:57:03;;;;;;;4.03;2.13;;;;;;;7.23;50.50;103389.88;5070001;28;20021;-67
2023/04/18 00:59:29;;;;;;;4.82;2.25;;;;;;;7.20;50.60;103398.97;5070213;28;20044;-67
2023/04/18 01:01:54;;;;;;;4.57;2.15;;;;;;;7.16;50.71;103397.50;5069983;28;20449;-67
2023/04/18 01:04:20;;;;;;;3.75;2.10;;;;;;;7.18;50.56;103405.41;5068983;28;20040;-67
2023/04/18 01:06:46;;;;;;;5.97;2.33;;;;;;;7.16;50.95;103413.56;5064624;28;20033;-67
2023/04/18 01:09:12;;;;;;;3.97;2.42;;;;;;;7.11;51.85;103410.34;5069931;28;20039;-67
2023/04/18 01:11:38;;;;;;;5.30;2.20;;;;;;;6.97;51.18;103373.91;5065398;28;20044;-67
2023/04/18 01:14:06;;;;;;;4.82;2.08;;;;;;;7.19;50.67;103407.16;5065881;28;20024;-67
2023/04/18 01:16:32;;;;;;;4.65;2.28;;;;;;;7.20;51.91;103412.38;5070664;28;20020;-67
2023/04/18 01:19:02;;;;;;;5.38;2.22;;;;;;;7.07;51.49;103382.97;5069007;28;20062;-67
2023/04/18 01:21:42;;;;;;;6.20;2.30;;;;;;;7.17;52.13;103417.09;5069674;28;20028;-66
2023/04/18 01:24:12;;;;;;;4.15;2.05;;;;;;;7.23;52.12;103409.47;5071206;28;20079;-66
2023/04/18 01:26:39;;;;;;;6.28;2.20;;;;;;;7.18;51.85;103406.25;5069385;28;20043;-67
2023/04/18 01:29:05;;;;;;;5.25;2.35;;;;;;;7.19;52.31;103415.19;5069649;28;20052;-67
2023/04/18 01:31:37;;;;;;;7.53;2.30;;;;;;;7.19;52.78;103420.53;5070674;28;20032;-67
2023/04/18 01:34:03;;;;;;;5.13;2.05;;;;;;;7.15;52.71;103419.03;5070389;28;20070;-68
2023/04/18 01:36:30;;;;;;;4.38;2.22;;;;;;;7.07;53.01;103408.88;5068674;28;20089;-67
2023/04/18 01:38:56;;;;;;;5.53;2.35;;;;;;;7.13;53.08;103423.66;5068473;28;20097;-67
2023/04/18 01:41:22;;;;;;;3.92;2.13;;;;;;;7.05;53.05;103425.06;5069896;28;20059;-67
2023/04/18 01:43:47;;;;;;;6.65;1.90;;;;;;;7.03;52.92;103431.50;5053034;28;20424;-67
2023/04/18 01:46:13;;;;;;;3.35;2.35;;;;;;;6.98;53.47;103428.28;5068948;28;20059;-67
2023/04/18 01:48:38;;;;;;;3.30;2.17;;;;;;;7.00;52.89;103413.84;5068842;28;20029;-67
2023/04/18 01:51:04;;;;;;;8.90;2.30;;;;;;;7.15;53.14;103424.38;5052787;28;20115;-67
2023/04/18 01:53:29;;;;;;;4.85;2.45;;;;;;;7.13;53.28;103427.19;5070648;28;20025;-67
2023/04/18 01:55:57;;;;;;;5.60;2.08;;;;;;;7.16;53.14;103426.13;5069212;28;20017;-67
2023/04/18 01:58:24;;;;;;;5.75;2.42;;;;;;;7.18;53.05;103424.16;5069919;28;20025;-67
2023/04/18 02:00:53;;;;;;;5.35;2.25;;;;;;;7.13;52.87;103421.81;5068760;28;20100;-67
2023/04/18 02:03:19;;;;;;;7.75;2.20;;;;;;;7.06;52.63;103423.25;5068294;28;20054;-67
2023/04/18 02:05:45;;;;;;;6.55;2.47;;;;;;;6.88;53.35;103421.88;5069189;28;20100;-67
2023/04/18 02:08:11;;;;;;;6.57;2.30;;;;;;;6.88;52.77;103411.19;5068594;28;20096;-67
2023/04/18 02:10:37;;;;;;;3.95;2.30;;;;;;;6.77;54.40;103425.34;5069850;28;20021;-67
2023/04/18 02:13:03;;;;;;;4.65;2.13;;;;;;;6.77;54.48;103430.69;5067371;28;20040;-67
2023/04/18 02:15:28;;;;;;;5.35;2.20;;;;;;;6.80;54.40;103422.44;5058033;28;20090;-67
2023/04/18 02:17:54;;;;;;;4.60;2.10;;;;;;;6.80;54.12;103425.13;5054385;28;20028;-67
2023/04/18 02:20:19;;;;;;;4.53;2.00;;;;;;;6.94;53.85;103430.34;5067388;28;20060;-67
2023/04/18 02:22:46;;;;;;;4.47;2.42;;;;;;;7.00;53.63;103431.72;5050122;28;20063;-67
2023/04/18 02:25:11;;;;;;;5.15;2.28;;;;;;;7.12;52.76;103440.66;5068668;28;20037;-67
2023/04/18 02:27:36;;;;;;;8.75;2.08;;;;;;;7.11;53.03;103437.13;5069140;28;20060;-67
2023/04/18 02:30:02;;;;;;;6.43;2.13;;;;;;;7.06;52.96;103425.94;5069824;28;20033;-67
2023/04/18 02:32:28;;;;;;;5.38;2.58;;;;;;;7.07;53.03;103436.50;5067178;28;20021;-67
2023/04/18 02:34:53;;;;;;;5.68;2.20;;;;;;;7.04;52.93;103438.56;5068360;28;20087;-67
2023/04/18 02:37:19;;;;;;;4.43;2.28;;;;;;;6.87;52.82;103412.16;5070015;28;20086;-67
2023/04/18 02:39:44;;;;;;;5.10;2.30;;;;;;;7.13;52.84;103431.69;5069596;28;20037;-67
2023/04/18 02:42:10;;;;;;;3.95;2.38;;;;;;;6.81;53.08;103413.44;5068778;28;20051;-67
2023/04/18 02:44:35;;;;;;;3.78;1.80;;;;;;;6.94;52.56;103422.31;5064338;28;20454;-67
2023/04/18 02:47:00;;;;;;;3.55;2.13;;;;;;;7.01;52.97;103436.94;5058705;28;20112;-67
2023/04/18 02:49:26;;;;;;;4.32;2.35;;;;;;;6.96;52.93;103439.13;5068376;28;20029;-67
2023/04/18 02:51:54;;;;;;;2.97;1.85;;;;;;;6.72;52.83;103390.91;5071429;28;20025;-67
2023/04/18 02:54:20;;;;;;;5.63;2.55;;;;;;;6.98;52.71;103442.53;5056417;28;20036;-67
2023/04/18 02:56:45;;;;;;;3.60;2.42;;;;;;;6.89;52.91;103447.69;5073886;28;20033;-67
2023/04/18 02:59:11;;;;;;;4.53;2.30;;;;;;;6.70;53.50;103448.16;5071835;28;20447;-67
2023/04/18 03:01:36;;;;;;;3.20;2.08;;;;;;;6.62;54.07;103446.00;5069947;28;20039;-68
2023/04/18 03:04:02;;;;;;;3.20;2.30;;;;;;;6.67;54.09;103451.06;5063019;28;20487;-67
2023/04/18 03:06:27;;;;;;;9.10;2.40;;;;;;;6.60;54.30;103466.69;5062206;28;20029;-67
2023/04/18 03:08:54;;;;;;;5.47;2.20;;;;;;;6.57;54.14;103467.75;5071685;28;20037;-67
2023/04/18 03:11:20;;;;;;;3.80;2.30;;;;;;;6.26;55.00;103444.13;5070690;28;20029;-67
2023/04/18 03:13:45;;;;;;;3.90;2.30;;;;;;;6.20;55.67;103449.88;5066026;28;20025;-67
2023/04/18 03:16:11;;;;;;;9.27;2.95;;;;;;;6.31;55.68;103476.72;5050635;28;20427;-67
2023/04/18 03:18:36;;;;;;;7.88;2.30;;;;;;;6.27;56.04;103475.22;5054208;28;20065;-67
2023/04/18 03:21:02;;;;;;;5.20;2.40;;;;;;;6.33;55.42;103469.47;5071690;28;20029;-67
2023/04/18 03:23:27;;;;;;;3.67;2.33;;;;;;;6.50;55.00;103481.66;5071950;28;20098;-67
2023/04/18 03:25:52;;;;;;;3.85;2.47;;;;;;;6.31;54.83;103464.19;5054980;28;20096;-67
2023/04/18 03:28:18;;;;;;;3.67;2.17;;;;;;;6.38;54.80;103486.03;5055244;28;20104;-67
2023/04/18 03:30:43;;;;;;;3.40;2.30;;;;;;;6.32;55.09;103481.09;5072596;28;20060;-67
2023/04/18 03:33:09;;;;;;;3.50;2.40;;;;;;;6.26;55.41;103484.22;5070517;28;20032;-67
2023/04/18 03:35:34;;;;;;;7.05;2.60;;;;;;;6.28;55.49;103484.94;5072188;28;20071;-67
2023/04/18 03:38:00;;;;;;;5.22;2.30;;;;;;;6.08;56.99;103487.16;5072067;28;20024;-67
2023/04/18 03:40:25;;;;;;;5.47;2.35;;;;;;;6.33;56.45;103498.88;5054338;28;20103;-67
2023/04/18 03:42:51;;;;;;;5.45;2.28;;;;;;;6.37;56.11;103503.03;5070747;28;20033;-68
2023/04/18 03:45:16;;;;;;;3.85;2.55;;;;;;;6.38;55.66;103488.69;5071376;28;20044;-67
2023/04/18 03:47:42;;;;;;;3.75;2.33;;;;;;;6.55;55.11;103495.56;5040501;28;20098;-67
2023/04/18 03:50:07;;;;;;;3.85;2.28;;;;;;;6.50;55.12;103498.56;5055619;28;20056;-67
2023/04/18 03:52:33;;;;;;;6.85;2.20;;;;;;;6.64;54.71;103492.25;5060381;28;20164;-67
2023/04/18 03:54:59;;;;;;;3.75;2.25;;;;;;;6.67;54.53;103489.34;5063908;28;20032;-67
2023/04/18 03:57:24;;;;;;;3.05;2.35;;;;;;;6.64;54.55;103494.06;5059924;28;20093;-68
2023/04/18 03:59:50;;;;;;;4.03;2.20;;;;;;;6.70;54.37;103497.19;5059902;28;20187;-68
2023/04/18 04:02:15;;;;;;;3.75;2.50;;;;;;;6.77;53.82;103495.78;5057972;28;20112;-66
2023/04/18 04:04:40;;;;;;;5.60;2.17;;;;;;;6.77;53.49;103489.56;5056998;28;20029;-68
2023/04/18 04:07:06;;;;;;;6.35;2.30;;;;;;;6.72;53.56;103497.06;5056576;28;20135;-66
2023/04/18 04:09:31;;;;;;;6.28;2.38;;;;;;;6.72;53.83;103494.38;5055852;28;20028;-68
2023/04/18 04:11:57;;;;;;;6.28;2.33;;;;;;;6.68;54.11;103500.91;5056299;28;20115;-67
2023/04/18 04:14:23;;;;;;;4.72;2.40;;;;;;;6.83;53.48;103499.84;5056109;28;20032;-67
2023/04/18 04:16:49;;;;;;;8.07;2.20;;;;;;;7.23;52.71;103497.00;5056740;28;20033;-67
2023/04/18 04:19:15;;;;;;;4.13;2.30;;;;;;;7.52;51.88;103482.31;5059737;28;20555;-66
2023/04/18 04:21:40;;;;;;;3.80;2.60;;;;;;;8.10;50.90;103497.69;5063758;28;20029;-67
2023/04/18 04:24:06;;;;;;;6.53;2.83;;;;;;;8.38;49.33;103462.44;5069923;28;20029;-67
2023/04/18 04:26:33;;;;;;;5.35;2.15;;;;;;;9.07;47.94;103499.06;5068915;28;20486;-67
2023/04/18 04:28:58;;;;;;;4.63;2.45;;;;;;;9.45;47.03;103497.81;5043733;28;20029;-67
2023/04/18 04:31:24;;;;;;;4.45;2.58;;;;;;;9.83;46.13;103503.56;5063139;28;20039;-68
2023/04/18 04:33:49;;;;;;;5.47;2.47;;;;;;;10.09;45.50;103487.03;5067332;28;20044;-68
2023/04/18 04:36:15;;;;;;;3.65;2.25;;;;;;;10.35;45.01;103501.84;5055474;28;20029;-68
2023/04/18 04:38:43;;;;;;;6.05;2.03;;;;;;;10.70;44.48;103505.19;5055647;28;20096;-69
2023/04/18 04:41:08;;;;;;;4.43;2.47;;;;;;;10.95;43.94;103506.56;5056536;28;20547;-68
2023/04/18 04:43:34;;;;;;;6.70;2.30;;;;;;;11.06;43.63;103511.88;5059241;28;20090;-68
2023/04/18 04:46:02;;;;;;;6.47;2.30;;;;;;;10.94;44.14;103508.41;5058410;28;20028;-68
2023/04/18 04:48:28;;;;;;;2.60;1.92;;;;;;;10.62;43.93;103516.59;5058008;28;20400;-68
2023/04/18 04:50:58;;;;;;;4.30;2.60;;;;;;;10.63;44.61;103515.63;5058592;28;20044;-68
2023/04/18 04:53:25;;;;;;;3.67;2.53;;;;;;;10.40;44.95;103519.44;5057238;28;20407;-69
2023/04/18 04:55:50;;;;;;;3.70;2.53;;;;;;;10.46;44.85;103518.91;5058078;28;20036;-68
2023/04/18 04:58:16;;;;;;;3.55;2.13;;;;;;;10.22;45.14;103524.53;5056538;28;20025;-68
2023/04/18 05:00:41;;;;;;;8.65;2.97;;;;;;;10.56;44.67;103500.97;5058160;28;20055;-68
2023/04/18 05:03:07;;;;;;;4.13;2.30;;;;;;;11.36;43.47;103523.59;5058515;28;20135;-68
2023/04/18 05:05:33;;;;;;;6.30;2.13;;;;;;;12.06;41.43;103503.69;5056586;28;20060;-68
2023/04/18 05:07:58;;;;;;;7.07;2.50;;;;;;;12.62;40.26;103504.75;5058770;28;20025;-68
2023/04/18 05:10:24;;;;;;;4.55;2.20;;;;;;;13.28;39.84;103526.25;5055823;28;20096;-69
2023/04/18 05:12:49;;;;;;;11.05;2.40;;;;;;;13.60;38.68;103508.69;5037908;28;20048;-67
2023/04/18 05:15:15;;;;;;;6.10;2.58;;;;;;;13.94;38.76;103527.81;5054094;28;20090;-68
2023/04/18 05:17:41;;;;;;;8.77;2.58;;;;;;;14.00;38.62;103529.03;5054445;28;20361;-68
2023/04/18 05:20:07;;;;;;;9.40;2.33;;;;;;;13.42;39.09;103522.19;5055636;28;20049;-67
2023/04/18 05:22:33;;;;;;;4.18;2.03;;;;;;;12.70;39.93;103534.56;5054003;28;20028;-68
2023/04/18 05:24:59;;;;;;;4.15;2.15;;;;;;;12.46;40.02;103532.34;5038116;28;20037;-68
2023/04/18 05:27:24;;;;;;;4.60;2.22;;;;;;;12.20;40.57;103537.47;5056190;28;20040;-68
2023/04/18 05:29:50;;;;;;;5.10;2.13;;;;;;;11.01;43.00;103539.19;5056529;28;20024;-68
2023/04/18 05:32:16;;;;;;;4.10;2.25;;;;;;;10.16;44.78;103542.03;5057908;28;20040;-68
2023/04/18 05:34:41;;;;;;;5.53;2.47;;;;;;;9.96;45.95;103541.00;5057988;28;20328;-68
2023/04/18 05:37:07;;;;;;;3.92;2.15;;;;;;;10.01;45.51;103514.59;5057940;28;20056;-68
2023/04/18 05:39:32;;;;;;;3.63;2.33;;;;;;;10.15;45.72;103540.34;5056448;28;20422;-68
2023/04/18 05:41:58;;;;;;;3.28;2.25;;;;;;;10.16;45.48;103547.41;5056701;28;20110;-68
2023/04/18 05:44:23;;;;;;;3.70;2.28;;;;;;;10.01;45.88;103513.75;5039515;28;20033;-68
2023/04/18 05:46:50;;;;;;;3.95;2.40;;;;;;;9.97;46.39;103529.28;5056765;28;20512;-68
2023/04/18 05:49:19;;;;;;;5.32;2.20;;;;;;;10.08;46.46;103539.16;5057041;28;20021;-68
2023/04/18 05:51:45;;;;;;;5.47;2.65;;;;;;;10.05;47.22;103544.78;5056366;28;20463;-68
2023/04/18 05:54:11;;;;;;;9.77;2.70;;;;;;;10.24;46.64;103544.09;5055821;28;20095;-68
2023/04/18 05:56:37;;;;;;;4.90;2.35;;;;;;;10.22;46.24;103540.66;5055761;28;20119;-70
2023/04/18 05:59:03;;;;;;;7.80;2.53;;;;;;;10.36;46.45;103545.75;5057237;28;20501;-69
2023/04/18 06:01:28;;;;;;;5.18;2.38;;;;;;;10.64;46.69;103544.25;5056922;28;20076;-68
2023/04/18 06:03:54;;;;;;;3.40;2.20;;;;;;;10.79;45.74;103518.69;5055850;28;20052;-68
2023/04/18 06:06:20;;;;;;;3.05;2.13;;;;;;;11.00;45.24;103521.34;5057166;28;20088;-69
2023/04/18 06:08:45;;;;;;;4.28;2.38;;;;;;;11.19;45.35;103549.34;5039080;28;20075;-69
2023/04/18 06:11:11;;;;;;;4.03;2.22;;;;;;;11.38;44.54;103548.56;5053677;28;20471;-68
2023/04/18 06:13:36;;;;;;;9.27;2.60;;;;;;;11.00;45.61;103552.81;5053898;28;20060;-68
2023/04/18 06:16:02;;;;;;;6.00;2.40;;;;;;;11.28;44.50;103562.00;5056895;28;20542;-68
2023/04/18 06:18:28;;;;;;;4.63;2.33;;;;;;;11.46;44.30;103556.84;5055449;28;20119;-68
2023/04/18 06:20:53;;;;;;;4.97;2.33;;;;;;;11.79;44.38;103560.13;5056839;28;20433;-68
2023/04/18 06:23:19;;;;;;;6.15;2.38;;;;;;;11.66;44.13;103557.72;5056821;28;20025;-68
2023/04/18 06:25:44;;;;;;;6.10;2.38;;;;;;;11.48;44.48;103563.78;5056780;28;20033;-68
2023/04/18 06:28:10;;;;;;;5.65;2.58;;;;;;;11.39;44.62;103559.22;5060168;28;20376;-68
2023/04/18 06:30:36;;;;;;;8.45;2.53;;;;;;;11.34;44.93;103539.06;5043500;28;20091;-69
2023/04/18 06:33:01;;;;;;;5.43;2.38;;;;;;;11.65;45.17;103556.00;5060940;28;20033;-68
2023/04/18 06:35:30;;;;;;;7.05;2.50;;;;;;;11.61;44.98;103560.81;5061222;28;20183;-68
2023/04/18 06:37:55;;;;;;;4.57;2.10;;;;;;;11.55;44.58;103563.22;5061423;28;20009;-68
2023/04/18 06:40:21;;;;;;;6.45;2.47;;;;;;;11.90;45.15;103568.16;5041646;28;20106;-68
2023/04/18 06:42:46;;;;;;;3.03;2.20;;;;;;;12.00;44.62;103574.41;5057022;28;20052;-68
2023/04/18 06:45:12;;;;;;;4.47;2.00;;;;;;;11.87;44.41;103574.69;5062008;28;20033;-69
2023/04/18 06:47:38;;;;;;;5.38;2.22;;;;;;;12.01;44.49;103565.31;5060404;28;20043;-69
2023/04/18 06:50:06;;;;;;;3.83;2.20;;;;;;;12.16;43.96;103571.16;5060057;28;20118;-69
2023/04/18 06:52:32;;;;;;;5.57;2.13;;;;;;;12.18;43.46;103567.31;5060850;28;20447;-68
2023/04/18 06:54:57;;;;;;;6.15;2.00;;;;;;;12.26;43.17;103566.63;5059758;28;20033;-68
2023/04/18 06:57:23;;;;;;;9.98;1.90;;;;;;;12.68;42.78;103568.97;5061320;28;20021;-68
2023/04/18 06:59:48;;;;;;;9.07;2.30;;;;;;;12.59;42.25;103578.81;5060306;28;20095;-69
2023/04/18 07:02:14;;;;;;;3.80;2.10;;;;;;;12.70;42.08;103567.81;5061073;28;20097;-68
2023/04/18 07:04:39;;;;;;;5.32;2.50;;;;;;;12.88;41.82;103575.16;5062257;28;20063;-68
2023/04/18 07:07:05;;;;;;;6.05;2.10;;;;;;;13.10;41.87;103564.00;5060394;28;20429;-68
2023/04/18 07:09:31;;;;;;;4.28;2.17;;;;;;;13.47;41.58;103573.97;5062006;28;20104;-69
2023/04/18 07:11:56;;;;;;;7.88;1.83;;;;;;;13.59;41.17;103564.66;5061244;28;20120;-68
2023/04/18 07:14:23;;;;;;;4.78;1.95;;;;;;;13.48;41.03;103574.84;5061810;28;20036;-69
2023/04/18 07:16:49;;;;;;;3.00;1.83;;;;;;;13.51;40.33;103578.09;5043542;28;20040;-68
2023/04/18 07:19:15;;;;;;;3.75;1.80;;;;;;;13.59;40.27;103571.91;5060398;28;20076;-68
2023/04/18 07:21:42;;;;;;;5.60;1.60;;;;;;;13.62;40.13;103569.75;5042408;28;20028;-68
2023/04/18 07:24:09;;;;;;;3.95;1.55;;;;;;;13.65;39.88;103578.59;5042242;28;20029;-68
2023/04/18 07:26:35;;;;;;;3.22;1.33;;;;;;;14.01;39.51;103580.34;5059842;28;20443;-68
2023/04/18 07:29:00;;;;;;;3.17;1.40;;;;;;;14.08;39.11;103578.72;5060893;28;20058;-68
2023/04/18 07:31:27;;;;;;;5.03;1.15;;;;;;;14.12;38.15;103570.28;5059553;28;20507;-68
2023/04/18 07:33:53;;;;;;;2.03;0.95;;;;;;;14.04;37.72;103561.06;5059841;28;20057;-69
2023/04/18 07:36:19;;;;;;;1.75;1.00;;;;;;;14.10;37.80;103541.50;5057323;28;20037;-68
2023/04/18 07:38:45;;;;;;;3.03;0.98;;;;;;;14.09;37.14;103574.97;5058524;28;20513;-68
2023/04/18 07:41:11;;;;;;;1.40;1.00;;;;;;;13.88;36.85;103584.44;5056279;28;20040;-68
2023/04/18 07:43:37;;;;;;;2.35;1.20;;;;;;;13.91;37.22;103571.44;5055382;28;20376;-69
2023/04/18 07:46:03;;;;;;;3.97;1.10;;;;;;;14.15;37.06;103569.97;5058854;28;20025;-69
2023/04/18 07:48:29;;;;;;;4.85;1.15;;;;;;;14.35;37.41;103582.34;5056522;28;20148;-69
2023/04/18 07:50:54;;;;;;;3.28;1.30;;;;;;;14.43;37.47;103574.25;5059832;28;20080;-68
2023/04/18 07:53:20;;;;;;;2.08;1.00;;;;;;;14.52;37.18;103578.78;5055272;28;20063;-68
2023/04/18 07:55:45;;;;;;;4.57;1.13;;;;;;;14.57;37.47;103575.59;5054776;28;20021;-68
2023/04/18 07:58:11;;;;;;;5.07;1.17;;;;;;;14.59;37.51;103570.00;5057864;28;20040;-69
2023/04/18 08:00:41;;;;;;;1.88;0.90;;;;;;;14.74;36.94;103579.28;5057427;28;20032;-68
2023/04/18 08:03:09;;;;;;;2.13;0.90;;;;;;;14.44;37.17;103554.31;5058543;28;20024;-68
2023/04/18 08:05:35;;;;;;;1.23;0.73;;;;;;;14.37;37.71;103569.50;5057472;28;20025;-69
2023/04/18 08:08:00;;;;;;;2.17;1.10;;;;;;;14.46;37.04;103573.94;5058655;28;20025;-69
2023/04/18 08:10:26;;;;;;;4.05;0.90;;;;;;;14.37;37.44;103577.63;5057992;28;20128;-68
2023/04/18 08:12:51;;;;;;;2.05;0.90;;;;;;;14.28;37.21;103567.72;5057211;28;20545;-68
2023/04/18 08:15:17;;;;;;;2.40;1.13;;;;;;;14.45;37.21;103571.41;5030684;28;20100;-68
2023/04/18 08:17:44;;;;;;;4.80;0.98;;;;;;;14.63;37.12;103571.38;5061561;28;20432;-68
2023/04/18 08:20:11;;;;;;;2.67;1.00;;;;;;;14.63;37.28;103553.28;5016684;28;1190580;-68
2023/04/18 08:22:37;;;;;;;5.93;1.25;;;;;;;14.99;37.79;103532.31;5057960;28;20551;-69
2023/04/18 08:25:03;;;;;;;1.67;0.93;;;;;;;15.35;36.96;103561.97;5039204;28;20068;-69
2023/04/18 08:27:29;;;;;;;2.30;1.30;;;;;;;15.37;37.54;103578.09;5039734;28;20036;-69
2023/04/18 08:29:55;;;;;;;3.25;1.00;;;;;;;15.33;37.36;103579.41;5058229;28;20024;-68
2023/04/18 08:32:20;;;;;;;1.05;0.80;;;;;;;15.01;36.81;103572.84;5040123;28;20040;-68
2023/04/18 08:34:46;;;;;;;2.65;0.82;;;;;;;15.02;36.55;103564.53;5057840;28;20033;-69
2023/04/18 08:37:11;;;;;;;2.40;0.70;;;;;;;14.99;36.41;103550.44;5040745;28;20404;-68
2023/04/18 08:39:37;;;;;;;2.50;1.00;;;;;;;15.28;36.99;103571.78;5058377;28;20078;-69
2023/04/18 08:42:05;;;;;;;2.00;0.93;;;;;;;15.14;36.52;103572.41;5036510;28;20044;-68
2023/04/18 08:44:31;;;;;;;1.60;0.80;;;;;;;15.20;36.52;103578.03;5054959;28;20054;-69
2023/04/18 08:46:58;;;;;;;1.00;0.57;;;;;;;15.10;36.17;103576.41;5057220;28;20025;-69
2023/04/18 08:49:24;;;;;;;1.55;0.60;;;;;;;15.39;36.32;103576.06;5038244;28;20055;-69
2023/04/18 08:51:51;;;;;;;1.45;1.08;;;;;;;15.57;36.44;103575.97;5056517;28;20028;-69
2023/04/18 08:54:21;;;;;;;3.95;1.00;;;;;;;15.81;36.36;103565.19;5056659;28;20033;-68
2023/04/18 08:57:02;;;;;;;2.13;0.82;;;;;;;15.90;36.73;103561.50;5057864;28;20144;-69
2023/04/18 08:59:29;;;;;;;2.58;0.82;;;;;;;15.81;36.34;103573.34;5063918;28;20025;-68
2023/04/18 09:01:56;;;;;;;3.55;0.90;;;;;;;15.80;36.67;103568.94;5062163;28;20020;-68
2023/04/18 09:04:39;;;;;;;3.88;1.00;;;;;;;15.52;37.52;103571.84;5060550;28;20025;-69
2023/04/18 09:07:14;;;;;;;4.53;1.00;;;;;;;15.87;37.69;103564.53;5056672;28;20555;-68
2023/04/18 09:09:46;;;;;;;1.85;0.70;;;;;;;15.39;38.39;103579.63;5056620;28;20035;-68
2023/04/18 09:12:21;;;;;;;5.30;0.90;;;;;;;15.86;36.94;103564.69;5057759;28;20097;-69
2023/04/18 09:14:53;;;;;;;1.38;0.70;;;;;;;15.92;38.21;103559.44;5057713;28;20078;-69
2023/04/18 09:17:41;;;;;;;2.88;1.00;;;;;;;16.16;37.87;103563.22;5057287;28;20207;-69
2023/04/18 09:20:11;;;;;;;1.05;0.80;;;;;;;15.97;37.54;103550.81;5057494;28;20048;-69
2023/04/18 09:22:56;;;;;;;1.17;0.68;;;;;;;15.88;36.10;103558.06;5057947;28;20032;-69
2023/04/18 09:25:36;;;;;;;1.10;0.52;;;;;;;16.37;35.38;103571.69;5057471;28;20050;-70
2023/04/18 09:28:04;;;;;;;1.25;0.55;;;;;;;16.07;35.43;103535.19;5056876;28;20025;-69
2023/04/18 09:30:35;;;;;;;0.80;0.40;;;;;;;16.13;35.04;103564.41;5057446;28;20040;-69
2023/04/18 09:33:02;;;;;;;1.15;0.60;;;;;;;16.34;34.60;103550.31;5057740;28;20107;-68
2023/04/18 09:35:28;;;;;;;1.20;0.40;;;;;;;16.04;34.59;103570.00;5055738;28;20036;-68
2023/04/18 09:37:54;;;;;;;1.30;0.60;;;;;;;15.80;34.55;103551.81;5053800;28;20025;-68
2023/04/18 09:40:20;;;;;;;2.10;0.85;;;;;;;15.94;34.74;103560.13;5054059;28;20056;-69
2023/04/18 09:42:46;;;;;;;1.00;0.40;;;;;;;16.02;34.75;103547.56;5056690;28;20055;-69
2023/04/18 09:45:12;;;;;;;0.57;0.40;;;;;;;15.43;34.58;103569.28;5058598;28;20033;-69
2023/04/18 09:47:38;;;;;;;2.05;0.50;;;;;;;15.37;34.98;103551.81;5056275;28;20058;-68
2023/04/18 09:50:09;;;;;;;1.10;0.60;;;;;;;15.79;34.45;103552.78;5057919;28;20025;-69
2023/04/18 09:52:36;;;;;;;0.98;0.50;;;;;;;15.78;34.57;103546.53;5057453;28;20052;-69
2023/04/18 09:55:05;;;;;;;0.90;0.40;;;;;;;15.89;34.29;103553.50;5057461;28;20051;-69
2023/04/18 09:57:32;;;;;;;1.60;0.47;;;;;;;15.90;34.97;103547.06;5054600;28;20028;-69
2023/04/18 10:00:20;;;;;;;0.95;0.40;;;;;;;16.31;35.15;103538.94;5057705;28;20431;-69
2023/04/18 10:03:03;;;;;;;0.70;0.50;;;;;;;15.97;34.90;103545.38;5059952;28;20025;-68
2023/04/18 10:05:38;;;;;;;1.80;0.60;;;;;;;16.16;35.10;103542.34;5061102;28;20047;-68
2023/04/18 10:08:05;;;;;;;0.85;0.50;;;;;;;16.33;34.62;103543.19;5063802;28;20112;-69
2023/04/18 10:10:31;;;;;;;2.95;0.50;;;;;;;16.31;34.63;103534.34;5060852;28;20052;-68
2023/04/18 10:12:58;;;;;;;1.00;0.60;;;;;;;16.67;34.51;103542.13;5064170;28;20036;-68
2023/04/18 10:15:26;;;;;;;1.55;0.50;;;;;;;16.62;34.61;103531.78;5065817;28;20073;-68
2023/04/18 10:17:57;;;;;;;1.20;0.50;;;;;;;16.72;34.04;103537.03;5065499;28;20116;-68
2023/04/18 10:20:25;;;;;;;1.15;0.57;;;;;;;16.60;34.13;103546.53;5060374;28;20053;-69
2023/04/18 10:22:52;;;;;;;1.80;0.50;;;;;;;16.48;34.14;103561.50;5055719;28;20124;-69
2023/04/18 10:25:33;;;;;;;1.83;0.50;;;;;;;16.49;33.56;103534.16;5057352;28;20025;-69
2023/04/18 10:28:02;;;;;;;1.75;0.38;;;;;;;16.62;34.41;103539.91;5056953;28;20025;-69
2023/04/18 10:30:39;;;;;;;1.60;0.65;;;;;;;16.68;34.38;103531.06;5057110;28;20060;-69
2023/04/18 10:33:21;;;;;;;1.85;0.68;;;;;;;16.61;34.13;103530.06;5057101;28;20185;-69
2023/04/18 10:35:59;;;;;;;1.25;0.40;;;;;;;16.48;33.88;103526.16;5056767;28;20032;-69
2023/04/18 10:38:25;;;;;;;2.40;0.65;;;;;;;16.45;34.07;103532.78;5055316;28;20480;-68
2023/04/18 10:40:50;;;;;;;1.38;0.40;;;;;;;16.52;34.17;103535.66;5056271;28;20028;-69
2023/04/18 10:43:16;;;;;;;1.85;0.50;;;;;;;16.62;34.53;103492.84;5040155;28;20036;-69
2023/04/18 10:45:41;;;;;;;1.83;0.50;;;;;;;16.77;33.98;103520.19;5038739;28;20061;-69
2023/04/18 10:48:28;;;;;;;3.03;0.60;;;;;;;16.99;33.81;103524.06;5056011;28;20032;-69
2023/04/18 10:51:17;;;;;;;2.92;0.40;;;;;;;16.68;33.62;103520.16;5058085;28;20025;-69
2023/04/18 10:53:50;;;;;;;1.27;0.55;;;;;;;16.58;33.15;103518.69;5058635;28;20113;-69
2023/04/18 10:56:16;;;;;;;1.08;0.50;;;;;;;16.73;32.86;103514.22;5056707;28;20020;-69
2023/04/18 10:58:46;;;;;;;0.93;0.40;;;;;;;16.73;32.73;103506.06;5056425;28;20025;-69
2023/04/18 11:01:14;;;;;;;0.65;0.45;;;;;;;16.74;33.13;103513.19;5057394;28;20055;-69
2023/04/18 11:03:40;;;;;;;0.80;0.30;;;;;;;16.95;32.84;103515.38;5055773;28;20028;-68
2023/04/18 11:06:05;;;;;;;1.35;0.30;;;;;;;16.93;32.53;103511.16;5056274;28;20033;-69
2023/04/18 11:08:31;;;;;;;1.70;0.50;;;;;;;16.95;32.80;103512.66;5055967;28;20029;-69
2023/04/18 11:11:02;;;;;;;3.10;0.50;;;;;;;17.22;32.70;103513.22;5057878;28;20057;-68
2023/04/18 11:13:27;;;;;;;1.35;0.40;;;;;;;16.75;32.38;103498.59;5060223;28;20051;-69
2023/04/18 11:15:52;;;;;;;1.50;0.50;;;;;;;16.96;32.68;103527.13;5058546;28;20033;-68
2023/04/18 11:18:18;;;;;;;0.90;0.47;;;;;;;16.73;33.01;103503.34;5059401;28;20045;-68
2023/04/18 11:20:50;;;;;;;2.92;0.73;;;;;;;17.03;32.57;103501.75;5060133;28;20045;-69
2023/04/18 11:23:22;;;;;;;1.38;0.60;;;;;;;17.05;32.23;103497.00;5059319;28;20383;-68
2023/04/18 11:25:53;;;;;;;1.25;0.50;;;;;;;16.99;32.86;103491.41;5065210;28;20084;-69
2023/04/18 11:28:20;;;;;;;0.70;0.40;;;;;;;17.38;32.56;103500.41;5062308;28;20087;-69